sensor_id;sensor_type;location;lat;lon;timestamp;P1;durP1;ratioP1;P2;durP2;ratioP2
51122;SDS011;37162;41.724;13.346;2023-08-01T09:19:19;8.25;;;3.65;;
51122;SDS011;37162;41.724;13.346;2023-08-01T09:21:46;5.90;;;3.28;;
51122;SDS011;37162;41.724;13.346;2023-08-01T09:24:13;4.15;;;3.20;;
51122;SDS011;37162;41.724;13.346;2023-08-01T09:26:40;4.20;;;3.22;;
51122;SDS011;37162;41.724;13.346;2023-08-01T09:29:07;4.82;;;2.95;;
51122;SDS011;37162;41.724;13.346;2023-08-01T09:31:34;5.72;;;2.85;;
51122;SDS011;37162;41.724;13.346;2023-08-01T09:34:01;4.90;;;3.53;;
51122;SDS011;37162;41.724;13.346;2023-08-01T09:36:31;3.70;;;3.25;;
51122;SDS011;37162;41.724;13.346;2023-08-01T09:38:58;6.47;;;3.53;;
51122;SDS011;37162;41.724;13.346;2023-08-01T09:41:24;4.25;;;3.03;;
51122;SDS011;37162;41.724;13.346;2023-08-01T09:43:51;4.93;;;3.35;;
51122;SDS011;37162;41.724;13.346;2023-08-01T09:46:16;6.82;;;3.33;;
51122;SDS011;37162;41.724;13.346;2023-08-01T09:48:42;5.40;;;3.20;;
51122;SDS011;37162;41.724;13.346;2023-08-01T09:51:09;4.75;;;3.45;;
51122;SDS011;37162;41.724;13.346;2023-08-01T09:53:35;3.80;;;3.08;;
51122;SDS011;37162;41.724;13.346;2023-08-01T09:56:11;5.43;;;3.25;;
51122;SDS011;37162;41.724;13.346;2023-08-01T09:58:41;5.40;;;3.40;;
51122;SDS011;37162;41.724;13.346;2023-08-01T10:01:08;3.78;;;3.13;;
51122;SDS011;37162;41.724;13.346;2023-08-01T10:03:34;5.32;;;2.85;;
51122;SDS011;37162;41.724;13.346;2023-08-01T10:05:59;4.43;;;3.40;;
51122;SDS011;37162;41.724;13.346;2023-08-01T10:08:25;3.53;;;2.80;;
51122;SDS011;37162;41.724;13.346;2023-08-01T10:10:52;4.13;;;3.33;;
51122;SDS011;37162;41.724;13.346;2023-08-01T10:13:21;4.03;;;2.88;;
51122;SDS011;37162;41.724;13.346;2023-08-01T10:15:49;3.85;;;2.80;;
51122;SDS011;37162;41.724;13.346;2023-08-01T10:18:16;5.50;;;3.00;;
51122;SDS011;37162;41.724;13.346;2023-08-01T10:20:42;5.63;;;3.17;;
51122;SDS011;37162;41.724;13.346;2023-08-01T10:23:09;4.28;;;3.10;;
51122;SDS011;37162;41.724;13.346;2023-08-01T10:25:36;3.75;;;3.08;;
51122;SDS011;37162;41.724;13.346;2023-08-01T10:28:04;4.15;;;3.05;;
51122;SDS011;37162;41.724;13.346;2023-08-01T10:30:31;6.38;;;3.47;;
51122;SDS011;37162;41.724;13.346;2023-08-01T10:32:57;3.20;;;2.75;;
51122;SDS011;37162;41.724;13.346;2023-08-01T10:38:03;5.05;;;3.60;;
51122;SDS011;37162;41.724;13.346;2023-08-01T10:40:37;7.97;;;2.83;;
51122;SDS011;37162;41.724;13.346;2023-08-01T10:43:28;4.28;;;3.00;;
51122;SDS011;37162;41.724;13.346;2023-08-01T10:46:05;3.60;;;3.13;;
51122;SDS011;37162;41.724;13.346;2023-08-01T10:48:30;3.97;;;2.70;;
51122;SDS011;37162;41.724;13.346;2023-08-01T10:50:56;3.33;;;2.63;;
51122;SDS011;37162;41.724;13.346;2023-08-01T10:53:22;3.13;;;2.53;;
51122;SDS011;37162;41.724;13.346;2023-08-01T10:55:48;4.30;;;2.92;;
51122;SDS011;37162;41.724;13.346;2023-08-01T10:58:14;4.10;;;2.85;;
51122;SDS011;37162;41.724;13.346;2023-08-01T11:00:41;6.93;;;3.53;;
51122;SDS011;37162;41.724;13.346;2023-08-01T11:03:07;4.57;;;3.17;;
51122;SDS011;37162;41.724;13.346;2023-08-01T11:05:33;4.05;;;3.03;;
51122;SDS011;37162;41.724;13.346;2023-08-01T11:07:59;2.97;;;2.60;;
51122;SDS011;37162;41.724;13.346;2023-08-01T11:10:26;2.97;;;2.65;;
51122;SDS011;37162;41.724;13.346;2023-08-01T11:12:53;3.75;;;2.85;;
51122;SDS011;37162;41.724;13.346;2023-08-01T11:15:19;3.78;;;2.95;;
51122;SDS011;37162;41.724;13.346;2023-08-01T11:17:48;3.33;;;2.70;;
51122;SDS011;37162;41.724;13.346;2023-08-01T11:20:18;5.75;;;2.78;;
51122;SDS011;37162;41.724;13.346;2023-08-01T11:23:04;3.92;;;2.75;;
51122;SDS011;37162;41.724;13.346;2023-08-01T11:25:37;6.35;;;2.90;;
51122;SDS011;37162;41.724;13.346;2023-08-01T11:28:08;4.85;;;3.10;;
51122;SDS011;37162;41.724;13.346;2023-08-01T11:30:37;3.97;;;2.95;;
51122;SDS011;37162;41.724;13.346;2023-08-01T11:33:16;5.63;;;2.58;;
51122;SDS011;37162;41.724;13.346;2023-08-01T11:35:45;4.10;;;2.85;;
51122;SDS011;37162;41.724;13.346;2023-08-01T11:38:11;5.35;;;3.22;;
51122;SDS011;37162;41.724;13.346;2023-08-01T11:40:36;4.90;;;2.90;;
51122;SDS011;37162;41.724;13.346;2023-08-01T11:43:03;5.68;;;3.05;;
51122;SDS011;37162;41.724;13.346;2023-08-01T11:45:29;2.95;;;2.65;;
51122;SDS011;37162;41.724;13.346;2023-08-01T11:47:54;4.82;;;3.47;;
51122;SDS011;37162;41.724;13.346;2023-08-01T11:50:20;5.55;;;3.47;;
51122;SDS011;37162;41.724;13.346;2023-08-01T11:52:50;5.93;;;2.85;;
51122;SDS011;37162;41.724;13.346;2023-08-01T11:55:20;3.97;;;2.88;;
51122;SDS011;37162;41.724;13.346;2023-08-01T11:57:54;9.95;;;2.72;;
51122;SDS011;37162;41.724;13.346;2023-08-01T12:00:21;4.78;;;3.03;;
51122;SDS011;37162;41.724;13.346;2023-08-01T12:02:47;3.00;;;2.63;;
51122;SDS011;37162;41.724;13.346;2023-08-01T12:05:20;4.10;;;3.03;;
51122;SDS011;37162;41.724;13.346;2023-08-01T12:07:46;6.97;;;3.47;;
51122;SDS011;37162;41.724;13.346;2023-08-01T12:10:11;3.55;;;2.88;;
51122;SDS011;37162;41.724;13.346;2023-08-01T12:12:42;4.82;;;2.97;;
51122;SDS011;37162;41.724;13.346;2023-08-01T12:15:14;3.75;;;2.70;;
51122;SDS011;37162;41.724;13.346;2023-08-01T12:17:40;6.20;;;2.90;;
51122;SDS011;37162;41.724;13.346;2023-08-01T12:20:06;5.47;;;3.50;;
51122;SDS011;37162;41.724;13.346;2023-08-01T12:22:32;4.40;;;3.00;;
51122;SDS011;37162;41.724;13.346;2023-08-01T12:24:57;2.67;;;2.47;;
51122;SDS011;37162;41.724;13.346;2023-08-01T12:27:23;4.97;;;2.60;;
51122;SDS011;37162;41.724;13.346;2023-08-01T12:29:49;7.22;;;2.85;;
51122;SDS011;37162;41.724;13.346;2023-08-01T12:32:14;3.97;;;2.85;;
51122;SDS011;37162;41.724;13.346;2023-08-01T12:34:39;3.38;;;2.50;;
51122;SDS011;37162;41.724;13.346;2023-08-01T12:37:05;3.38;;;2.95;;
51122;SDS011;37162;41.724;13.346;2023-08-01T12:39:30;5.63;;;2.90;;
51122;SDS011;37162;41.724;13.346;2023-08-01T12:41:56;4.30;;;2.53;;
51122;SDS011;37162;41.724;13.346;2023-08-01T12:44:21;4.60;;;2.65;;
51122;SDS011;37162;41.724;13.346;2023-08-01T12:46:47;5.50;;;2.85;;
51122;SDS011;37162;41.724;13.346;2023-08-01T12:49:12;10.88;;;3.75;;
51122;SDS011;37162;41.724;13.346;2023-08-01T12:51:38;4.30;;;2.67;;
51122;SDS011;37162;41.724;13.346;2023-08-01T12:54:04;4.88;;;2.70;;
51122;SDS011;37162;41.724;13.346;2023-08-01T12:56:29;5.97;;;2.45;;
51122;SDS011;37162;41.724;13.346;2023-08-01T12:58:55;8.15;;;3.05;;
51122;SDS011;37162;41.724;13.346;2023-08-01T13:01:20;3.75;;;2.63;;
51122;SDS011;37162;41.724;13.346;2023-08-01T13:03:45;2.75;;;2.22;;
51122;SDS011;37162;41.724;13.346;2023-08-01T13:06:11;5.88;;;3.35;;
51122;SDS011;37162;41.724;13.346;2023-08-01T13:08:38;3.58;;;2.80;;
51122;SDS011;37162;41.724;13.346;2023-08-01T13:11:09;6.10;;;3.67;;
51122;SDS011;37162;41.724;13.346;2023-08-01T13:13:36;4.97;;;2.88;;
51122;SDS011;37162;41.724;13.346;2023-08-01T13:16:01;6.43;;;3.38;;
51122;SDS011;37162;41.724;13.346;2023-08-01T13:21:49;6.85;;;3.10;;
51122;SDS011;37162;41.724;13.346;2023-08-01T13:24:14;6.93;;;3.38;;
51122;SDS011;37162;41.724;13.346;2023-08-01T13:26:39;6.93;;;3.08;;
51122;SDS011;37162;41.724;13.346;2023-08-01T13:29:05;4.88;;;2.58;;
51122;SDS011;37162;41.724;13.346;2023-08-01T13:31:30;3.88;;;2.70;;
51122;SDS011;37162;41.724;13.346;2023-08-01T13:33:56;3.97;;;2.47;;
51122;SDS011;37162;41.724;13.346;2023-08-01T13:36:21;5.22;;;2.70;;
51122;SDS011;37162;41.724;13.346;2023-08-01T13:38:47;4.30;;;2.40;;
51122;SDS011;37162;41.724;13.346;2023-08-01T13:41:13;4.25;;;2.63;;
51122;SDS011;37162;41.724;13.346;2023-08-01T13:43:39;4.75;;;3.00;;
51122;SDS011;37162;41.724;13.346;2023-08-01T13:46:14;3.72;;;2.53;;
51122;SDS011;37162;41.724;13.346;2023-08-01T13:48:42;3.47;;;2.58;;
51122;SDS011;37162;41.724;13.346;2023-08-01T13:51:08;5.57;;;2.35;;
51122;SDS011;37162;41.724;13.346;2023-08-01T13:53:33;3.97;;;2.70;;
51122;SDS011;37162;41.724;13.346;2023-08-01T13:55:59;2.70;;;2.00;;
51122;SDS011;37162;41.724;13.346;2023-08-01T13:58:24;4.10;;;2.83;;
51122;SDS011;37162;41.724;13.346;2023-08-01T14:00:50;3.35;;;2.50;;
51122;SDS011;37162;41.724;13.346;2023-08-01T14:03:15;3.58;;;2.67;;
51122;SDS011;37162;41.724;13.346;2023-08-01T14:05:41;6.30;;;2.65;;
51122;SDS011;37162;41.724;13.346;2023-08-01T14:08:06;4.10;;;2.33;;
51122;SDS011;37162;41.724;13.346;2023-08-01T14:10:32;4.47;;;2.63;;
51122;SDS011;37162;41.724;13.346;2023-08-01T14:12:57;3.30;;;2.72;;
51122;SDS011;37162;41.724;13.346;2023-08-01T14:15:22;5.70;;;2.53;;
51122;SDS011;37162;41.724;13.346;2023-08-01T14:17:48;5.78;;;3.22;;
51122;SDS011;37162;41.724;13.346;2023-08-01T14:20:13;4.40;;;2.55;;
51122;SDS011;37162;41.724;13.346;2023-08-01T14:22:40;6.07;;;2.80;;
51122;SDS011;37162;41.724;13.346;2023-08-01T14:25:07;6.88;;;2.70;;
51122;SDS011;37162;41.724;13.346;2023-08-01T14:27:34;5.18;;;2.50;;
51122;SDS011;37162;41.724;13.346;2023-08-01T14:29:59;3.40;;;2.47;;
51122;SDS011;37162;41.724;13.346;2023-08-01T14:32:25;3.35;;;2.50;;
51122;SDS011;37162;41.724;13.346;2023-08-01T14:34:50;5.20;;;2.90;;
51122;SDS011;37162;41.724;13.346;2023-08-01T14:37:16;3.92;;;2.63;;
51122;SDS011;37162;41.724;13.346;2023-08-01T14:39:41;6.88;;;2.80;;
51122;SDS011;37162;41.724;13.346;2023-08-01T14:42:07;5.80;;;3.35;;
51122;SDS011;37162;41.724;13.346;2023-08-01T14:44:32;7.25;;;2.33;;
51122;SDS011;37162;41.724;13.346;2023-08-01T14:46:58;7.18;;;3.03;;
51122;SDS011;37162;41.724;13.346;2023-08-01T14:49:23;5.97;;;2.30;;
51122;SDS011;37162;41.724;13.346;2023-08-01T14:51:52;5.15;;;3.03;;
51122;SDS011;37162;41.724;13.346;2023-08-01T14:54:17;5.65;;;2.60;;
51122;SDS011;37162;41.724;13.346;2023-08-01T14:56:43;8.25;;;2.67;;
51122;SDS011;37162;41.724;13.346;2023-08-01T14:59:09;5.70;;;2.55;;
51122;SDS011;37162;41.724;13.346;2023-08-01T15:01:34;6.30;;;2.60;;
51122;SDS011;37162;41.724;13.346;2023-08-01T15:04:00;3.95;;;2.20;;
51122;SDS011;37162;41.724;13.346;2023-08-01T15:06:25;3.97;;;2.63;;
51122;SDS011;37162;41.724;13.346;2023-08-01T15:08:51;4.00;;;2.60;;
51122;SDS011;37162;41.724;13.346;2023-08-01T15:11:16;5.05;;;2.97;;
51122;SDS011;37162;41.724;13.346;2023-08-01T15:13:42;3.85;;;2.53;;
51122;SDS011;37162;41.724;13.346;2023-08-01T15:16:10;4.72;;;2.47;;
51122;SDS011;37162;41.724;13.346;2023-08-01T15:18:36;5.97;;;2.38;;
51122;SDS011;37162;41.724;13.346;2023-08-01T15:21:02;4.75;;;2.67;;
51122;SDS011;37162;41.724;13.346;2023-08-01T15:23:27;4.20;;;2.60;;
51122;SDS011;37162;41.724;13.346;2023-08-01T15:25:56;8.38;;;2.78;;
51122;SDS011;37162;41.724;13.346;2023-08-01T15:28:23;5.10;;;3.08;;
51122;SDS011;37162;41.724;13.346;2023-08-01T15:30:50;5.05;;;3.08;;
51122;SDS011;37162;41.724;13.346;2023-08-01T15:33:26;4.22;;;2.50;;
51122;SDS011;37162;41.724;13.346;2023-08-01T15:35:52;2.95;;;2.42;;
51122;SDS011;37162;41.724;13.346;2023-08-01T15:38:23;6.35;;;2.63;;
51122;SDS011;37162;41.724;13.346;2023-08-01T15:40:49;5.93;;;2.53;;
51122;SDS011;37162;41.724;13.346;2023-08-01T15:43:17;3.58;;;2.45;;
51122;SDS011;37162;41.724;13.346;2023-08-01T15:45:43;2.50;;;2.25;;
51122;SDS011;37162;41.724;13.346;2023-08-01T15:48:08;5.18;;;2.85;;
51122;SDS011;37162;41.724;13.346;2023-08-01T15:50:33;4.78;;;2.35;;
51122;SDS011;37162;41.724;13.346;2023-08-01T15:52:59;4.22;;;2.38;;
51122;SDS011;37162;41.724;13.346;2023-08-01T15:55:24;3.28;;;2.53;;
51122;SDS011;37162;41.724;13.346;2023-08-01T15:57:50;4.70;;;2.70;;
51122;SDS011;37162;41.724;13.346;2023-08-01T16:00:15;4.32;;;2.50;;
51122;SDS011;37162;41.724;13.346;2023-08-01T16:02:41;3.60;;;2.42;;
51122;SDS011;37162;41.724;13.346;2023-08-01T16:05:06;4.07;;;2.85;;
51122;SDS011;37162;41.724;13.346;2023-08-01T16:07:32;3.53;;;2.70;;
51122;SDS011;37162;41.724;13.346;2023-08-01T16:09:57;4.55;;;2.72;;
51122;SDS011;37162;41.724;13.346;2023-08-01T16:12:23;5.95;;;2.50;;
51122;SDS011;37162;41.724;13.346;2023-08-01T16:14:48;2.83;;;2.33;;
51122;SDS011;37162;41.724;13.346;2023-08-01T16:17:13;3.97;;;2.72;;
51122;SDS011;37162;41.724;13.346;2023-08-01T16:19:39;6.30;;;2.65;;
51122;SDS011;37162;41.724;13.346;2023-08-01T16:22:04;5.70;;;2.95;;
51122;SDS011;37162;41.724;13.346;2023-08-01T16:24:30;6.57;;;3.00;;
51122;SDS011;37162;41.724;13.346;2023-08-01T16:26:55;3.33;;;2.38;;
51122;SDS011;37162;41.724;13.346;2023-08-01T16:29:21;4.38;;;2.88;;
51122;SDS011;37162;41.724;13.346;2023-08-01T16:31:46;5.05;;;2.72;;
51122;SDS011;37162;41.724;13.346;2023-08-01T16:34:12;4.57;;;2.63;;
51122;SDS011;37162;41.724;13.346;2023-08-01T16:36:37;3.85;;;2.65;;
51122;SDS011;37162;41.724;13.346;2023-08-01T16:39:02;6.47;;;2.90;;
51122;SDS011;37162;41.724;13.346;2023-08-01T16:41:28;5.38;;;2.75;;
51122;SDS011;37162;41.724;13.346;2023-08-01T16:43:53;3.60;;;2.60;;
51122;SDS011;37162;41.724;13.346;2023-08-01T16:46:20;4.50;;;2.85;;
51122;SDS011;37162;41.724;13.346;2023-08-01T16:48:46;3.60;;;2.67;;
51122;SDS011;37162;41.724;13.346;2023-08-01T16:51:11;5.10;;;3.13;;
51122;SDS011;37162;41.724;13.346;2023-08-01T16:53:36;4.20;;;2.60;;
51122;SDS011;37162;41.724;13.346;2023-08-01T16:56:02;5.28;;;2.38;;
51122;SDS011;37162;41.724;13.346;2023-08-01T16:58:27;5.18;;;3.33;;
51122;SDS011;37162;41.724;13.346;2023-08-01T17:00:53;4.75;;;2.85;;
51122;SDS011;37162;41.724;13.346;2023-08-01T17:03:18;4.93;;;3.13;;
51122;SDS011;37162;41.724;13.346;2023-08-01T17:05:44;7.38;;;2.85;;
51122;SDS011;37162;41.724;13.346;2023-08-01T17:08:09;4.00;;;2.78;;
51122;SDS011;37162;41.724;13.346;2023-08-01T17:10:35;3.50;;;3.00;;
51122;SDS011;37162;41.724;13.346;2023-08-01T17:13:00;4.13;;;2.55;;
51122;SDS011;37162;41.724;13.346;2023-08-01T17:15:27;4.18;;;2.92;;
51122;SDS011;37162;41.724;13.346;2023-08-01T17:17:52;3.10;;;2.67;;
51122;SDS011;37162;41.724;13.346;2023-08-01T17:20:18;3.35;;;2.80;;
51122;SDS011;37162;41.724;13.346;2023-08-01T17:22:43;4.63;;;3.25;;
51122;SDS011;37162;41.724;13.346;2023-08-01T17:25:09;5.20;;;3.10;;
51122;SDS011;37162;41.724;13.346;2023-08-01T17:27:34;4.93;;;2.90;;
51122;SDS011;37162;41.724;13.346;2023-08-01T17:30:00;8.20;;;4.05;;
51122;SDS011;37162;41.724;13.346;2023-08-01T17:32:26;6.32;;;3.13;;
51122;SDS011;37162;41.724;13.346;2023-08-01T17:34:52;4.88;;;2.80;;
51122;SDS011;37162;41.724;13.346;2023-08-01T17:37:17;7.03;;;2.63;;
51122;SDS011;37162;41.724;13.346;2023-08-01T17:39:42;5.13;;;2.58;;
51122;SDS011;37162;41.724;13.346;2023-08-01T17:42:08;4.93;;;3.40;;
51122;SDS011;37162;41.724;13.346;2023-08-01T17:44:33;4.28;;;2.83;;
51122;SDS011;37162;41.724;13.346;2023-08-01T17:46:59;4.55;;;3.17;;
51122;SDS011;37162;41.724;13.346;2023-08-01T17:49:24;7.03;;;2.95;;
51122;SDS011;37162;41.724;13.346;2023-08-01T17:51:50;5.72;;;2.70;;
51122;SDS011;37162;41.724;13.346;2023-08-01T17:54:15;5.35;;;3.10;;
51122;SDS011;37162;41.724;13.346;2023-08-01T17:56:41;3.47;;;2.97;;
51122;SDS011;37162;41.724;13.346;2023-08-01T17:59:06;4.15;;;2.90;;
51122;SDS011;37162;41.724;13.346;2023-08-01T18:01:32;10.52;;;3.53;;
51122;SDS011;37162;41.724;13.346;2023-08-01T18:03:59;6.60;;;2.80;;
51122;SDS011;37162;41.724;13.346;2023-08-01T18:06:25;7.78;;;3.00;;
51122;SDS011;37162;41.724;13.346;2023-08-01T18:08:50;7.60;;;2.90;;
51122;SDS011;37162;41.724;13.346;2023-08-01T18:11:16;5.05;;;2.85;;
51122;SDS011;37162;41.724;13.346;2023-08-01T18:13:43;6.43;;;3.00;;
51122;SDS011;37162;41.724;13.346;2023-08-01T18:16:20;4.35;;;2.97;;
51122;SDS011;37162;41.724;13.346;2023-08-01T18:18:50;3.80;;;2.78;;
51122;SDS011;37162;41.724;13.346;2023-08-01T18:21:16;7.15;;;3.17;;
51122;SDS011;37162;41.724;13.346;2023-08-01T18:23:41;6.25;;;2.88;;
51122;SDS011;37162;41.724;13.346;2023-08-01T18:26:09;6.90;;;2.92;;
51122;SDS011;37162;41.724;13.346;2023-08-01T18:28:41;4.57;;;2.92;;
51122;SDS011;37162;41.724;13.346;2023-08-01T18:31:07;7.22;;;2.67;;
51122;SDS011;37162;41.724;13.346;2023-08-01T18:33:33;4.70;;;2.75;;
51122;SDS011;37162;41.724;13.346;2023-08-01T18:36:01;3.75;;;2.80;;
51122;SDS011;37162;41.724;13.346;2023-08-01T18:38:27;3.65;;;2.75;;
51122;SDS011;37162;41.724;13.346;2023-08-01T18:40:53;6.65;;;2.70;;
51122;SDS011;37162;41.724;13.346;2023-08-01T18:43:18;3.55;;;2.63;;
51122;SDS011;37162;41.724;13.346;2023-08-01T18:45:52;5.30;;;2.80;;
51122;SDS011;37162;41.724;13.346;2023-08-01T18:48:18;4.95;;;3.30;;
51122;SDS011;37162;41.724;13.346;2023-08-01T18:50:43;4.03;;;2.53;;
51122;SDS011;37162;41.724;13.346;2023-08-01T18:53:08;9.40;;;2.78;;
51122;SDS011;37162;41.724;13.346;2023-08-01T18:55:34;6.43;;;3.25;;
51122;SDS011;37162;41.724;13.346;2023-08-01T18:57:59;6.00;;;2.63;;
51122;SDS011;37162;41.724;13.346;2023-08-01T19:00:28;3.50;;;2.78;;
51122;SDS011;37162;41.724;13.346;2023-08-01T19:02:54;6.10;;;2.72;;
51122;SDS011;37162;41.724;13.346;2023-08-01T19:05:20;4.38;;;2.67;;
51122;SDS011;37162;41.724;13.346;2023-08-01T19:07:45;4.75;;;2.85;;
51122;SDS011;37162;41.724;13.346;2023-08-01T19:10:12;3.85;;;2.50;;
51122;SDS011;37162;41.724;13.346;2023-08-01T19:12:40;3.85;;;2.60;;
51122;SDS011;37162;41.724;13.346;2023-08-01T19:15:06;6.80;;;3.22;;
51122;SDS011;37162;41.724;13.346;2023-08-01T19:17:32;8.43;;;3.03;;
51122;SDS011;37162;41.724;13.346;2023-08-01T19:19:57;6.95;;;3.08;;
51122;SDS011;37162;41.724;13.346;2023-08-01T19:22:23;4.13;;;2.78;;
51122;SDS011;37162;41.724;13.346;2023-08-01T19:24:52;4.57;;;2.55;;
51122;SDS011;37162;41.724;13.346;2023-08-01T19:27:18;4.55;;;2.80;;
51122;SDS011;37162;41.724;13.346;2023-08-01T19:29:47;8.40;;;3.08;;
51122;SDS011;37162;41.724;13.346;2023-08-01T19:32:14;6.47;;;2.83;;
51122;SDS011;37162;41.724;13.346;2023-08-01T19:34:43;4.50;;;2.72;;
51122;SDS011;37162;41.724;13.346;2023-08-01T19:37:11;5.22;;;2.83;;
51122;SDS011;37162;41.724;13.346;2023-08-01T19:39:37;5.30;;;2.55;;
51122;SDS011;37162;41.724;13.346;2023-08-01T19:42:03;6.60;;;3.83;;
51122;SDS011;37162;41.724;13.346;2023-08-01T19:44:30;5.93;;;3.08;;
51122;SDS011;37162;41.724;13.346;2023-08-01T19:47:02;6.60;;;3.10;;
51122;SDS011;37162;41.724;13.346;2023-08-01T19:49:31;9.90;;;3.03;;
51122;SDS011;37162;41.724;13.346;2023-08-01T19:51:57;6.82;;;3.58;;
51122;SDS011;37162;41.724;13.346;2023-08-01T19:54:22;5.68;;;3.05;;
51122;SDS011;37162;41.724;13.346;2023-08-01T19:56:48;3.50;;;2.50;;
51122;SDS011;37162;41.724;13.346;2023-08-01T19:59:14;7.78;;;3.20;;
51122;SDS011;37162;41.724;13.346;2023-08-01T20:01:40;6.32;;;2.75;;
51122;SDS011;37162;41.724;13.346;2023-08-01T20:04:07;6.00;;;3.22;;
51122;SDS011;37162;41.724;13.346;2023-08-01T20:06:32;6.70;;;3.28;;
51122;SDS011;37162;41.724;13.346;2023-08-01T20:08:58;7.30;;;3.13;;
51122;SDS011;37162;41.724;13.346;2023-08-01T20:11:23;9.02;;;3.20;;
51122;SDS011;37162;41.724;13.346;2023-08-01T20:13:49;8.18;;;3.20;;
51122;SDS011;37162;41.724;13.346;2023-08-01T20:16:14;4.47;;;3.17;;
51122;SDS011;37162;41.724;13.346;2023-08-01T20:18:40;5.32;;;3.17;;
51122;SDS011;37162;41.724;13.346;2023-08-01T20:21:05;5.07;;;2.75;;
51122;SDS011;37162;41.724;13.346;2023-08-01T20:23:31;6.05;;;3.13;;
51122;SDS011;37162;41.724;13.346;2023-08-01T20:25:56;5.88;;;3.30;;
51122;SDS011;37162;41.724;13.346;2023-08-01T20:28:22;5.88;;;3.22;;
51122;SDS011;37162;41.724;13.346;2023-08-01T20:30:48;6.32;;;3.53;;
51122;SDS011;37162;41.724;13.346;2023-08-01T20:33:14;4.13;;;2.95;;
51122;SDS011;37162;41.724;13.346;2023-08-01T20:35:40;6.80;;;3.17;;
51122;SDS011;37162;41.724;13.346;2023-08-01T20:38:06;7.25;;;3.13;;
51122;SDS011;37162;41.724;13.346;2023-08-01T20:40:32;5.55;;;2.97;;
51122;SDS011;37162;41.724;13.346;2023-08-01T20:43:01;8.23;;;4.28;;
51122;SDS011;37162;41.724;13.346;2023-08-01T20:45:27;4.95;;;3.25;;
51122;SDS011;37162;41.724;13.346;2023-08-01T20:47:53;5.20;;;2.92;;
51122;SDS011;37162;41.724;13.346;2023-08-01T20:50:18;5.22;;;2.85;;
51122;SDS011;37162;41.724;13.346;2023-08-01T20:52:44;9.00;;;3.60;;
51122;SDS011;37162;41.724;13.346;2023-08-01T20:55:09;8.25;;;3.00;;
51122;SDS011;37162;41.724;13.346;2023-08-01T20:57:35;6.50;;;3.10;;
51122;SDS011;37162;41.724;13.346;2023-08-01T21:00:00;7.13;;;3.40;;
51122;SDS011;37162;41.724;13.346;2023-08-01T21:02:26;8.13;;;3.20;;
51122;SDS011;37162;41.724;13.346;2023-08-01T21:04:51;8.75;;;3.42;;
51122;SDS011;37162;41.724;13.346;2023-08-01T21:07:19;6.63;;;2.95;;
51122;SDS011;37162;41.724;13.346;2023-08-01T21:09:45;7.88;;;3.33;;
51122;SDS011;37162;41.724;13.346;2023-08-01T21:12:11;10.02;;;3.67;;
51122;SDS011;37162;41.724;13.346;2023-08-01T21:14:36;7.32;;;3.58;;
51122;SDS011;37162;41.724;13.346;2023-08-01T21:17:02;6.88;;;3.70;;
51122;SDS011;37162;41.724;13.346;2023-08-01T21:19:27;5.75;;;3.10;;
51122;SDS011;37162;41.724;13.346;2023-08-01T21:21:53;6.22;;;3.28;;
51122;SDS011;37162;41.724;13.346;2023-08-01T21:24:18;7.32;;;3.40;;
51122;SDS011;37162;41.724;13.346;2023-08-01T21:26:44;5.28;;;3.17;;
51122;SDS011;37162;41.724;13.346;2023-08-01T21:29:09;5.75;;;3.28;;
51122;SDS011;37162;41.724;13.346;2023-08-01T21:31:34;8.98;;;3.40;;
51122;SDS011;37162;41.724;13.346;2023-08-01T21:34:01;9.75;;;4.28;;
51122;SDS011;37162;41.724;13.346;2023-08-01T21:36:26;4.90;;;3.17;;
51122;SDS011;37162;41.724;13.346;2023-08-01T21:38:52;5.93;;;3.58;;
51122;SDS011;37162;41.724;13.346;2023-08-01T21:41:17;8.20;;;3.95;;
51122;SDS011;37162;41.724;13.346;2023-08-01T21:43:43;9.32;;;3.60;;
51122;SDS011;37162;41.724;13.346;2023-08-01T21:46:09;5.28;;;3.15;;
51122;SDS011;37162;41.724;13.346;2023-08-01T21:48:35;8.05;;;3.30;;
51122;SDS011;37162;41.724;13.346;2023-08-01T21:51:03;7.50;;;3.53;;
51122;SDS011;37162;41.724;13.346;2023-08-01T21:53:32;8.55;;;4.10;;
51122;SDS011;37162;41.724;13.346;2023-08-01T21:55:58;8.50;;;3.83;;
51122;SDS011;37162;41.724;13.346;2023-08-01T21:58:24;8.73;;;3.60;;
51122;SDS011;37162;41.724;13.346;2023-08-01T22:00:49;8.20;;;4.28;;
51122;SDS011;37162;41.724;13.346;2023-08-01T22:03:15;6.53;;;3.67;;
51122;SDS011;37162;41.724;13.346;2023-08-01T22:05:40;9.80;;;4.03;;
51122;SDS011;37162;41.724;13.346;2023-08-01T22:08:06;7.50;;;3.97;;
51122;SDS011;37162;41.724;13.346;2023-08-01T22:10:33;10.35;;;3.80;;
51122;SDS011;37162;41.724;13.346;2023-08-01T22:12:59;7.78;;;3.70;;
51122;SDS011;37162;41.724;13.346;2023-08-01T22:15:25;6.05;;;3.47;;
51122;SDS011;37162;41.724;13.346;2023-08-01T22:17:51;9.27;;;3.95;;
51122;SDS011;37162;41.724;13.346;2023-08-01T22:20:17;6.75;;;4.03;;
51122;SDS011;37162;41.724;13.346;2023-08-01T22:22:42;7.80;;;3.70;;
51122;SDS011;37162;41.724;13.346;2023-08-01T22:25:08;8.38;;;3.90;;
51122;SDS011;37162;41.724;13.346;2023-08-01T22:27:34;9.02;;;4.40;;
51122;SDS011;37162;41.724;13.346;2023-08-01T22:30:00;9.40;;;4.03;;
51122;SDS011;37162;41.724;13.346;2023-08-01T22:32:26;10.93;;;3.67;;
51122;SDS011;37162;41.724;13.346;2023-08-01T22:34:52;10.40;;;4.20;;
51122;SDS011;37162;41.724;13.346;2023-08-01T22:37:17;7.38;;;4.35;;
51122;SDS011;37162;41.724;13.346;2023-08-01T22:39:44;10.07;;;4.30;;
51122;SDS011;37162;41.724;13.346;2023-08-01T22:42:09;7.30;;;4.03;;
51122;SDS011;37162;41.724;13.346;2023-08-01T22:44:35;6.47;;;4.18;;
51122;SDS011;37162;41.724;13.346;2023-08-01T22:47:00;8.38;;;3.53;;
51122;SDS011;37162;41.724;13.346;2023-08-01T22:49:27;8.50;;;4.20;;
51122;SDS011;37162;41.724;13.346;2023-08-01T22:51:52;8.60;;;4.03;;
51122;SDS011;37162;41.724;13.346;2023-08-01T22:54:17;6.93;;;3.75;;
51122;SDS011;37162;41.724;13.346;2023-08-01T22:56:43;8.95;;;3.83;;
51122;SDS011;37162;41.724;13.346;2023-08-01T22:59:08;12.93;;;5.10;;
51122;SDS011;37162;41.724;13.346;2023-08-01T23:01:34;8.38;;;3.78;;
51122;SDS011;37162;41.724;13.346;2023-08-01T23:03:59;8.70;;;3.60;;
51122;SDS011;37162;41.724;13.346;2023-08-01T23:06:25;7.38;;;3.72;;
51122;SDS011;37162;41.724;13.346;2023-08-01T23:08:51;6.75;;;3.78;;
51122;SDS011;37162;41.724;13.346;2023-08-01T23:11:17;6.70;;;3.75;;
51122;SDS011;37162;41.724;13.346;2023-08-01T23:13:43;9.35;;;3.95;;
51122;SDS011;37162;41.724;13.346;2023-08-01T23:16:10;7.35;;;3.70;;
51122;SDS011;37162;41.724;13.346;2023-08-01T23:18:36;8.90;;;3.85;;
51122;SDS011;37162;41.724;13.346;2023-08-01T23:21:01;8.07;;;3.95;;
51122;SDS011;37162;41.724;13.346;2023-08-01T23:23:27;8.05;;;4.07;;
51122;SDS011;37162;41.724;13.346;2023-08-01T23:26:02;6.35;;;3.83;;
51122;SDS011;37162;41.724;13.346;2023-08-01T23:28:32;8.50;;;3.70;;
51122;SDS011;37162;41.724;13.346;2023-08-01T23:30:57;6.47;;;4.00;;
51122;SDS011;37162;41.724;13.346;2023-08-01T23:33:23;5.78;;;3.65;;
51122;SDS011;37162;41.724;13.346;2023-08-01T23:35:49;10.40;;;4.10;;
51122;SDS011;37162;41.724;13.346;2023-08-01T23:38:15;7.90;;;4.13;;
51122;SDS011;37162;41.724;13.346;2023-08-01T23:40:41;4.53;;;3.15;;
51122;SDS011;37162;41.724;13.346;2023-08-01T23:43:06;8.13;;;3.67;;
51122;SDS011;37162;41.724;13.346;2023-08-01T23:45:32;7.50;;;3.53;;
51122;SDS011;37162;41.724;13.346;2023-08-01T23:47:58;8.23;;;3.38;;
51122;SDS011;37162;41.724;13.346;2023-08-01T23:50:23;5.45;;;3.33;;
51122;SDS011;37162;41.724;13.346;2023-08-01T23:52:49;6.03;;;3.58;;